createdAt,value
2023-02-24T00:00:01.679Z,8.4
2023-02-24T00:01:01.638Z,8.3
2023-02-24T00:02:01.853Z,8.4
2023-02-24T00:03:01.832Z,8.4
2023-02-24T00:04:01.881Z,8.4
2023-02-24T00:05:01.676Z,8.4
2023-02-24T00:06:01.643Z,8.4
2023-02-24T00:07:01.524Z,8.4
2023-02-24T00:08:01.503Z,8.3
2023-02-24T00:09:01.451Z,8.3
2023-02-24T00:10:02.302Z,8.4
2023-02-24T00:11:02.201Z,8.3
2023-02-24T00:12:02.295Z,8.4
2023-02-24T00:13:02.078Z,8.4
2023-02-24T00:14:02.033Z,8.4
2023-02-24T00:15:01.881Z,8.3
2023-02-24T00:16:01.781Z,8.3
2023-02-24T00:17:01.859Z,8.3
2023-02-24T00:18:02.228Z,8.3
2023-02-24T00:19:02.048Z,8.3
2023-02-24T00:20:02.393Z,8.3
2023-02-24T00:21:02.232Z,8.3
2023-02-24T00:22:02.288Z,8.3
2023-02-24T00:23:02.096Z,8.4
2023-02-24T00:24:02.156Z,8.3
2023-02-24T00:25:01.970Z,8.4
2023-02-24T00:26:01.955Z,8.4
2023-02-24T00:27:01.966Z,8.3
2023-02-24T00:28:01.876Z,8.3
2023-02-24T00:29:01.799Z,8.3
2023-02-24T00:30:01.832Z,8.3
2023-02-24T00:31:01.679Z,8.2
2023-02-24T00:32:02.024Z,8.3
2023-02-24T00:33:01.607Z,8.3
2023-02-24T00:34:01.441Z,8.3
2023-02-24T00:35:01.378Z,8.3
2023-02-24T00:36:02.395Z,8.3
2023-02-24T00:37:02.236Z,8.3
2023-02-24T00:38:02.216Z,8.4
2023-02-24T00:39:02.081Z,8.3
2023-02-24T00:40:02.144Z,8.3
2023-02-24T00:41:01.978Z,8.3
2023-02-24T00:42:01.864Z,8.2
2023-02-24T00:43:01.846Z,8.3
2023-02-24T00:44:01.705Z,8.3
2023-02-24T00:45:01.653Z,8.2
2023-02-24T00:46:01.490Z,8.2
2023-02-24T00:47:01.541Z,8.2
2023-02-24T00:48:01.507Z,8.2
2023-02-24T00:49:01.404Z,8.2
2023-02-24T00:50:01.420Z,8.2
2023-02-24T00:51:02.346Z,8.2
2023-02-24T00:52:02.178Z,8.3
2023-02-24T00:53:02.224Z,8.2
2023-02-24T00:54:02.019Z,8.2
2023-02-24T00:55:02.001Z,8.2
2023-02-24T00:56:01.874Z,8.2
2023-02-24T00:57:01.817Z,8.1
2023-02-24T00:58:01.795Z,8.3
2023-02-24T00:59:01.625Z,8.3
2023-02-24T01:00:01.613Z,8.2
2023-02-24T01:01:01.411Z,8.1
2023-02-24T01:02:01.438Z,8.2
2023-02-24T01:03:01.708Z,8.2
2023-02-24T01:04:01.596Z,8.2
2023-02-24T01:05:01.621Z,8.2
2023-02-24T01:06:01.444Z,8.1
2023-02-24T01:07:01.454Z,8.1
2023-02-24T01:08:02.372Z,8.1
2023-02-24T01:09:02.184Z,8.1
2023-02-24T01:10:02.236Z,8
2023-02-24T01:11:02.058Z,8
2023-02-24T01:12:02.121Z,8
2023-02-24T01:13:02.020Z,8.1
2023-02-24T01:14:01.963Z,8.1
2023-02-24T01:15:02.022Z,8.1
2023-02-24T01:16:01.988Z,8
2023-02-24T01:17:01.877Z,8
2023-02-24T01:18:01.909Z,8
2023-02-24T01:19:01.741Z,8
2023-02-24T01:20:01.806Z,8
2023-02-24T01:21:01.769Z,8
2023-02-24T01:22:01.577Z,8
2023-02-24T01:23:01.569Z,8
2023-02-24T01:24:01.393Z,8
2023-02-24T01:25:01.401Z,8
2023-02-24T01:26:02.305Z,8
2023-02-24T01:27:02.281Z,8.1
2023-02-24T01:28:02.153Z,7.9
2023-02-24T01:29:02.061Z,8
2023-02-24T01:30:02.095Z,8
2023-02-24T01:31:02.077Z,7.9
2023-02-24T01:32:02.233Z,8
2023-02-24T01:33:01.939Z,8
2023-02-24T01:34:01.417Z,8.1
2023-02-24T01:35:01.468Z,8
2023-02-24T01:36:01.339Z,8
2023-02-24T01:37:02.379Z,8
2023-02-24T01:38:02.274Z,8.1
2023-02-24T01:39:02.166Z,8.1
2023-02-24T01:40:02.090Z,8
2023-02-24T01:41:02.130Z,8.1
2023-02-24T01:42:01.898Z,8.1
2023-02-24T01:43:01.803Z,8.1
2023-02-24T01:44:01.983Z,8.1
2023-02-24T01:45:01.787Z,8.2
2023-02-24T01:46:01.731Z,8.1
2023-02-24T01:47:01.598Z,8.1
2023-02-24T01:48:01.597Z,8.1
2023-02-24T01:49:01.387Z,8.2
2023-02-24T01:50:02.406Z,8.2
2023-02-24T01:51:02.199Z,8.2
2023-02-24T01:52:02.250Z,8.1
2023-02-24T01:53:02.087Z,8.2
2023-02-24T01:54:02.095Z,8.2
2023-02-24T01:55:01.831Z,8.2
2023-02-24T01:56:01.780Z,8.2
2023-02-24T01:57:01.821Z,8.2
2023-02-24T01:58:01.642Z,8.2
2023-02-24T01:59:01.611Z,8.3
2023-02-24T02:00:01.442Z,8.2
2023-02-24T02:01:01.448Z,8.3
2023-02-24T02:02:02.424Z,8.2
2023-02-24T02:03:01.451Z,8.2
2023-02-24T02:04:02.351Z,8.3
2023-02-24T02:05:02.234Z,8.2
2023-02-24T02:06:02.230Z,8.2
2023-02-24T02:07:02.158Z,8.2
2023-02-24T02:08:02.185Z,8.3
2023-02-24T02:09:01.997Z,8.3
2023-02-24T02:10:01.887Z,8.3
2023-02-24T02:11:01.929Z,8.3
2023-02-24T02:12:01.804Z,8.2
2023-02-24T02:13:01.738Z,8.3
2023-02-24T02:14:01.756Z,8.2
2023-02-24T02:15:01.675Z,8.2
2023-02-24T02:16:01.714Z,8.3
2023-02-24T02:17:01.660Z,8.2
2023-02-24T02:18:01.628Z,8.3
2023-02-24T02:19:01.540Z,8.3
2023-02-24T02:20:01.535Z,8.3
2023-02-24T02:21:01.341Z,8.2
2023-02-24T02:22:02.397Z,8.3
2023-02-24T02:23:02.276Z,8.3
2023-02-24T02:24:02.266Z,8.3
2023-02-24T02:25:02.114Z,8.3
2023-02-24T02:26:02.104Z,8.3
2023-02-24T02:27:01.876Z,8.3
2023-02-24T02:28:01.783Z,8.3
2023-02-24T02:29:01.769Z,8.3
2023-02-24T02:30:01.596Z,8.3
2023-02-24T02:31:01.611Z,8.4
2023-02-24T02:32:01.743Z,8.4
2023-02-24T02:33:02.184Z,8.4
2023-02-24T02:34:02.018Z,8.4
2023-02-24T02:35:01.831Z,8.3
2023-02-24T02:36:01.724Z,8.3
2023-02-24T02:37:01.744Z,8.3
2023-02-24T02:38:01.539Z,8.3
2023-02-24T02:39:01.574Z,8.4
2023-02-24T02:40:01.448Z,8.3
2023-02-24T02:41:01.427Z,8.4
2023-02-24T02:42:02.388Z,8.4
2023-02-24T02:43:02.225Z,8.4
2023-02-24T02:44:02.262Z,8.4
2023-02-24T02:45:02.212Z,8.4
2023-02-24T02:46:02.303Z,8.3
2023-02-24T02:47:01.751Z,8.3
2023-02-24T02:48:01.744Z,8.3
2023-02-24T02:49:01.596Z,8.4
2023-02-24T02:50:01.605Z,8.4
2023-02-24T02:51:01.408Z,8.4
2023-02-24T02:52:01.452Z,8.5
2023-02-24T02:53:02.334Z,8.4
2023-02-24T02:54:02.188Z,8.4
2023-02-24T02:55:02.235Z,8.4
2023-02-24T02:56:02.091Z,8.4
2023-02-24T02:57:02.126Z,8.4
2023-02-24T02:58:01.893Z,8.4
2023-02-24T02:59:01.781Z,8.5
2023-02-24T03:00:01.860Z,8.5
2023-02-24T03:01:01.752Z,8.5
2023-02-24T03:02:01.664Z,8.5
2023-02-24T03:03:01.683Z,8.3
2023-02-24T03:04:01.479Z,8.4
2023-02-24T03:05:01.597Z,8.5
2023-02-24T03:06:01.719Z,8.4
2023-02-24T03:07:01.776Z,8.4
2023-02-24T03:08:01.591Z,8.4
2023-02-24T03:09:01.973Z,8.4
2023-02-24T03:10:01.667Z,8.3
2023-02-24T03:11:01.705Z,8.3
2023-02-24T03:12:01.516Z,8.3
2023-02-24T03:13:01.532Z,8.3
2023-02-24T03:14:01.365Z,8.4
2023-02-24T03:15:01.389Z,8.2
2023-02-24T03:16:02.369Z,8.3
2023-02-24T03:17:02.096Z,8.3
2023-02-24T03:18:02.163Z,8.2
2023-02-24T03:19:01.990Z,8.2
2023-02-24T03:20:02.060Z,8.2
2023-02-24T03:21:01.893Z,8.2
2023-02-24T03:22:01.830Z,8.3
2023-02-24T03:23:01.880Z,8.2
2023-02-24T03:24:01.727Z,8.2
2023-02-24T03:25:01.758Z,8.2
2023-02-24T03:26:01.628Z,8.2
2023-02-24T03:27:01.484Z,8.2
2023-02-24T03:28:01.351Z,8.1
2023-02-24T03:29:02.400Z,8.1
2023-02-24T03:30:02.213Z,8.1
2023-02-24T03:31:02.319Z,8.1
2023-02-24T03:32:02.137Z,8
2023-02-24T03:33:01.425Z,8
2023-02-24T03:34:02.346Z,8
2023-02-24T03:35:02.181Z,8.1
2023-02-24T03:36:02.200Z,8.1
2023-02-24T03:37:02.140Z,8
2023-02-24T03:38:02.010Z,8
2023-02-24T03:39:01.900Z,7.9
2023-02-24T03:40:01.833Z,7.9
2023-02-24T03:41:01.830Z,8
2023-02-24T03:42:01.723Z,7.9
2023-02-24T03:43:01.706Z,7.8
2023-02-24T03:44:01.540Z,7.8
2023-02-24T03:45:01.593Z,7.8
2023-02-24T03:46:01.453Z,7.8
2023-02-24T03:47:02.181Z,7.8
2023-02-24T03:48:02.225Z,7.7
2023-02-24T03:49:02.072Z,7.8
2023-02-24T03:50:02.095Z,7.7
2023-02-24T03:51:01.913Z,7.7
2023-02-24T03:52:01.865Z,7.7
2023-02-24T03:53:01.917Z,7.7
2023-02-24T03:54:01.847Z,7.7
2023-02-24T03:55:01.684Z,7.7
2023-02-24T03:56:01.708Z,7.7
2023-02-24T03:57:01.538Z,7.6
2023-02-24T03:58:01.531Z,7.6
2023-02-24T03:59:01.356Z,7.6
2023-02-24T04:00:02.415Z,7.6
2023-02-24T04:01:02.232Z,7.7
2023-02-24T04:02:01.461Z,7.6
2023-02-24T04:03:01.489Z,7.6
2023-02-24T04:04:01.326Z,7.6
2023-02-24T04:05:02.392Z,7.5
2023-02-24T04:06:01.448Z,7.5
2023-02-24T04:07:01.449Z,7.5
2023-02-24T04:08:02.376Z,7.5
2023-02-24T04:09:02.222Z,7.5
2023-02-24T04:10:02.263Z,7.5
2023-02-24T04:11:02.087Z,7.5
2023-02-24T04:12:02.088Z,7.6
2023-02-24T04:13:01.993Z,7.5
2023-02-24T04:14:01.964Z,7.5
2023-02-24T04:15:01.973Z,7.5
2023-02-24T04:16:01.837Z,7.5
2023-02-24T04:17:01.919Z,7.6
2023-02-24T04:18:01.978Z,7.5
2023-02-24T04:19:01.750Z,7.6
2023-02-24T04:20:01.668Z,7.5
2023-02-24T04:21:01.704Z,7.5
2023-02-24T04:22:01.605Z,7.5
2023-02-24T04:23:01.445Z,7.5
2023-02-24T04:24:01.346Z,7.5
2023-02-24T04:25:02.391Z,7.5
2023-02-24T04:26:02.242Z,7.5
2023-02-24T04:27:02.286Z,7.4
2023-02-24T04:28:02.122Z,7.5
2023-02-24T04:29:02.141Z,7.5
2023-02-24T04:30:02.025Z,7.6
2023-02-24T04:31:01.989Z,7.5
2023-02-24T04:32:02.456Z,7.5
2023-02-24T04:33:02.079Z,7.5
2023-02-24T04:34:02.029Z,7.4
2023-02-24T04:35:01.930Z,7.4
2023-02-24T04:36:01.880Z,7.4
2023-02-24T04:37:01.792Z,7.4
2023-02-24T04:38:01.790Z,7.5
2023-02-24T04:39:01.583Z,7.5
2023-02-24T04:40:01.455Z,7.5
2023-02-24T04:41:01.443Z,7.4
2023-02-24T04:42:01.355Z,7.5
2023-02-24T04:43:02.401Z,7.5
2023-02-24T04:44:02.256Z,7.4
2023-02-24T04:45:02.264Z,7.5
2023-02-24T04:46:02.167Z,7.5
2023-02-24T04:47:02.162Z,7.4
2023-02-24T04:48:02.219Z,7.3
2023-02-24T04:49:02.009Z,7.3
2023-02-24T04:50:02.065Z,7.4
2023-02-24T04:51:01.893Z,7.3
2023-02-24T04:52:01.828Z,7.3
2023-02-24T04:53:01.874Z,7.4
2023-02-24T04:54:01.696Z,7.4
2023-02-24T04:55:01.613Z,7.4
2023-02-24T04:56:01.445Z,7.4
2023-02-24T04:57:01.419Z,7.4
2023-02-24T04:58:01.318Z,7.4
2023-02-24T04:59:02.387Z,7.3
2023-02-24T05:00:02.228Z,7.4
2023-02-24T05:01:02.231Z,7.4
2023-02-24T05:02:01.930Z,7.3
2023-02-24T05:03:01.911Z,7.4
2023-02-24T05:04:01.755Z,7.3
2023-02-24T05:05:01.973Z,7.3
2023-02-24T05:06:01.994Z,7.3
2023-02-24T05:07:01.970Z,7.4
2023-02-24T05:08:01.914Z,7.3
2023-02-24T05:09:01.939Z,7.3
2023-02-24T05:10:01.772Z,7.4
2023-02-24T05:11:01.675Z,7.3
2023-02-24T05:12:01.707Z,7.4
2023-02-24T05:13:02.509Z,7.3
2023-02-24T05:14:01.461Z,7.3
2023-02-24T05:15:01.461Z,7.3
2023-02-24T05:16:02.411Z,7.3
2023-02-24T05:17:02.110Z,7.3
2023-02-24T05:18:02.089Z,7.3
2023-02-24T05:19:01.989Z,7.3
2023-02-24T05:20:01.895Z,7.3
2023-02-24T05:21:02.100Z,7.3
2023-02-24T05:22:02.045Z,7.3
2023-02-24T05:23:01.894Z,7.3
2023-02-24T05:24:01.837Z,7.3
2023-02-24T05:25:01.979Z,7.3
2023-02-24T05:26:01.858Z,7.4
2023-02-24T05:27:01.837Z,7.3
2023-02-24T05:28:01.763Z,7.3
2023-02-24T05:29:01.753Z,7.3
2023-02-24T05:30:01.638Z,7.3
2023-02-24T05:31:01.692Z,7.2
2023-02-24T05:32:01.817Z,7.3
2023-02-24T05:33:02.205Z,7.3
2023-02-24T05:34:02.194Z,7.4
2023-02-24T05:35:02.031Z,7.3
2023-02-24T05:36:02.035Z,7.3
2023-02-24T05:37:01.938Z,7.3
2023-02-24T05:38:01.826Z,7.3
2023-02-24T05:39:01.871Z,7.3
2023-02-24T05:40:01.665Z,7.4
2023-02-24T05:41:01.714Z,7.3
2023-02-24T05:42:01.539Z,7.3
2023-02-24T05:43:01.512Z,7.4
2023-02-24T05:44:01.396Z,7.5
2023-02-24T05:45:02.347Z,7.3
2023-02-24T05:46:02.214Z,7.3
2023-02-24T05:47:02.164Z,7.3
2023-02-24T05:48:02.208Z,7.3
2023-02-24T05:49:02.058Z,7.3
2023-02-24T05:50:02.101Z,7.3
2023-02-24T05:51:03.178Z,7.3
2023-02-24T05:52:01.911Z,7.3
2023-02-24T05:53:01.949Z,7.4
2023-02-24T05:54:01.737Z,7.4
2023-02-24T05:55:01.686Z,7.4
2023-02-24T05:56:01.667Z,7.3
2023-02-24T05:57:01.520Z,7.4
2023-02-24T05:58:01.497Z,7.4
2023-02-24T05:59:01.340Z,7.4
2023-02-24T06:00:02.463Z,7.3
2023-02-24T06:01:02.236Z,7.4
2023-02-24T06:02:02.241Z,7.4
2023-02-24T06:03:02.263Z,7.3
2023-02-24T06:04:02.123Z,7.4
2023-02-24T06:05:02.179Z,7.3
2023-02-24T06:06:02.012Z,7.4
2023-02-24T06:07:02.042Z,7.4
2023-02-24T06:08:01.994Z,7.3
2023-02-24T06:09:01.781Z,7.3
2023-02-24T06:10:01.773Z,7.4
2023-02-24T06:11:01.544Z,7.4
2023-02-24T06:12:01.600Z,7.4
2023-02-24T06:13:01.483Z,7.3
2023-02-24T06:14:01.515Z,7.5
2023-02-24T06:15:01.383Z,7.4
2023-02-24T06:16:02.384Z,7.5
2023-02-24T06:17:02.125Z,7.5
2023-02-24T06:18:02.163Z,7.5
2023-02-24T06:19:02.001Z,7.5
2023-02-24T06:20:01.948Z,7.4
2023-02-24T06:21:01.660Z,7.4
2023-02-24T06:22:01.424Z,7.4
2023-02-24T06:23:01.461Z,7.5
2023-02-24T06:24:01.320Z,7.5
2023-02-24T06:25:02.364Z,7.4
2023-02-24T06:26:02.212Z,7.4
2023-02-24T06:27:02.172Z,7.4
2023-02-24T06:28:02.069Z,7.4
2023-02-24T06:29:02.061Z,7.4
2023-02-24T06:30:01.944Z,7.4
2023-02-24T06:31:01.893Z,7.4
2023-02-24T06:32:01.940Z,7.3
2023-02-24T06:33:02.071Z,7.4
2023-02-24T06:34:01.860Z,7.4
2023-02-24T06:35:01.786Z,7.4
2023-02-24T06:36:01.785Z,7.4
2023-02-24T06:37:01.617Z,7.5
2023-02-24T06:38:01.550Z,7.3
2023-02-24T06:39:01.399Z,7.3
2023-02-24T06:40:01.606Z,7.4
2023-02-24T06:41:01.336Z,7.4
2023-02-24T06:42:02.374Z,7.4
2023-02-24T06:43:02.209Z,7.4
2023-02-24T06:44:02.252Z,7.4
2023-02-24T06:45:02.111Z,7.4
2023-02-24T06:46:02.174Z,7.3
2023-02-24T06:47:01.886Z,7.3
2023-02-24T06:48:01.806Z,7.4
2023-02-24T06:49:01.708Z,7.5
2023-02-24T06:50:01.569Z,7.5
2023-02-24T06:51:01.586Z,7.4
2023-02-24T06:52:01.381Z,7.5
2023-02-24T06:53:01.460Z,7.4
2023-02-24T06:54:02.384Z,7.3
2023-02-24T06:55:02.217Z,7.3
2023-02-24T06:56:02.203Z,7.4
2023-02-24T06:57:02.086Z,7.4
2023-02-24T06:58:02.077Z,7.5
2023-02-24T06:59:01.972Z,7.5
2023-02-24T07:00:02.018Z,7.3
2023-02-24T07:01:02.040Z,7.2
2023-02-24T07:02:02.158Z,7.3
2023-02-24T07:03:02.064Z,7.3
2023-02-24T07:04:02.188Z,7.4
2023-02-24T07:05:02.286Z,7.2
2023-02-24T07:06:02.115Z,7.4
2023-02-24T07:07:02.169Z,7.4
2023-02-24T07:08:01.993Z,7.3
2023-02-24T07:09:01.932Z,7.3
2023-02-24T07:10:01.945Z,7.2
2023-02-24T07:11:01.936Z,7.3
2023-02-24T07:12:01.777Z,7.5
2023-02-24T07:13:01.851Z,7.3
2023-02-24T07:14:01.660Z,7.4
2023-02-24T07:15:01.664Z,7.4
2023-02-24T07:16:01.438Z,7.4
2023-02-24T07:17:01.412Z,7.3
2023-02-24T07:18:02.407Z,7.3
2023-02-24T07:19:02.246Z,7.3
2023-02-24T07:20:02.320Z,7.2
2023-02-24T07:21:02.102Z,7.2
2023-02-24T07:22:02.274Z,7.4
2023-02-24T07:23:02.056Z,7.2
2023-02-24T07:24:01.955Z,7.3
2023-02-24T07:25:02.029Z,7.2
2023-02-24T07:26:01.805Z,7.3
2023-02-24T07:27:01.689Z,7.3
2023-02-24T07:28:01.673Z,7.2
2023-02-24T07:29:01.581Z,7.1
2023-02-24T07:30:01.573Z,7.2
2023-02-24T07:31:01.493Z,7.2
2023-02-24T07:32:01.968Z,7.4
2023-02-24T07:33:02.330Z,7.3
2023-02-24T07:34:02.197Z,7.3
2023-02-24T07:35:02.203Z,7.5
2023-02-24T07:36:01.994Z,7.4
2023-02-24T07:37:02.037Z,7.4
2023-02-24T07:38:01.914Z,7.4
2023-02-24T07:39:01.935Z,7.2
2023-02-24T07:40:01.888Z,7.3
2023-02-24T07:41:01.751Z,7.3
2023-02-24T07:42:01.626Z,7.2
2023-02-24T07:43:01.664Z,7.2
2023-02-24T07:44:01.397Z,7.3
2023-02-24T07:45:01.534Z,7.3
2023-02-24T07:46:01.473Z,7.4
2023-02-24T07:47:01.464Z,7.3
2023-02-24T07:48:01.522Z,7.4
2023-02-24T07:49:01.352Z,7.3
2023-02-24T07:50:02.407Z,7.3
2023-02-24T07:51:02.232Z,7.3
2023-02-24T07:52:02.225Z,7.4
2023-02-24T07:53:02.118Z,7.3
2023-02-24T07:54:02.122Z,7.4
2023-02-24T07:55:02.007Z,7.4
2023-02-24T07:56:02.059Z,7.4
2023-02-24T07:57:02.088Z,7.4
2023-02-24T07:58:01.850Z,7.3
2023-02-24T07:59:01.736Z,7.3
2023-02-24T08:00:01.803Z,7.3
2023-02-24T08:01:01.508Z,7.5
2023-02-24T08:02:01.401Z,7.3
2023-02-24T08:03:01.461Z,7.3
2023-02-24T08:04:01.367Z,7.4
2023-02-24T08:05:02.371Z,7.4
2023-02-24T08:06:02.232Z,7.4
2023-02-24T08:07:02.271Z,7.5
2023-02-24T08:08:01.915Z,7.5
2023-02-24T08:09:01.954Z,7.5
2023-02-24T08:10:01.799Z,7.3
2023-02-24T08:11:01.679Z,7.4
2023-02-24T08:12:01.740Z,7.3
2023-02-24T08:13:01.549Z,7.4
2023-02-24T08:14:01.468Z,7.5
2023-02-24T08:15:01.353Z,7.4
2023-02-24T08:16:01.454Z,7.5
2023-02-24T08:17:01.360Z,7.5
2023-02-24T08:18:02.409Z,7.5
2023-02-24T08:19:02.251Z,7.5
2023-02-24T08:20:02.312Z,7.5
2023-02-24T08:21:02.135Z,7.5
2023-02-24T08:22:02.201Z,7.5
2023-02-24T08:23:02.014Z,7.5
2023-02-24T08:24:02.054Z,7.5
2023-02-24T08:25:01.843Z,7.4
2023-02-24T08:26:01.826Z,7.5
2023-02-24T08:27:01.821Z,7.6
2023-02-24T08:28:07.740Z,7.5
2023-02-24T08:29:01.409Z,7.5
2023-02-24T08:30:01.442Z,7.4
2023-02-24T08:31:01.391Z,7.5
2023-02-24T08:32:01.582Z,7.5
2023-02-24T08:33:01.675Z,7.6
2023-02-24T08:34:01.537Z,7.6
2023-02-24T08:35:01.559Z,7.6
2023-02-24T08:36:02.030Z,7.5
2023-02-24T08:37:01.623Z,7.5
2023-02-24T08:38:01.666Z,7.7
2023-02-24T08:39:01.483Z,7.7
2023-02-24T08:40:01.494Z,7.6
2023-02-24T08:41:01.336Z,7.6
2023-02-24T08:42:02.397Z,7.7
2023-02-24T08:43:02.204Z,7.7
2023-02-24T08:44:02.250Z,7.5
2023-02-24T08:45:02.080Z,7.7
2023-02-24T08:46:02.112Z,7.7
2023-02-24T08:47:02.142Z,7.7
2023-02-24T08:48:02.206Z,7.6
2023-02-24T08:49:02.233Z,7.6
2023-02-24T08:50:02.070Z,7.6
2023-02-24T08:51:02.099Z,7.6
2023-02-24T08:52:01.980Z,7.7
2023-02-24T08:53:01.958Z,7.7
2023-02-24T08:54:02.052Z,7.6
2023-02-24T08:55:01.885Z,7.7
2023-02-24T08:56:01.833Z,7.7
2023-02-24T08:57:01.890Z,7.7
2023-02-24T08:58:01.697Z,7.6
2023-02-24T08:59:01.663Z,7.6
2023-02-24T09:00:01.472Z,7.6
2023-02-24T09:01:01.507Z,7.6
2023-02-24T09:02:04.840Z,7.7
2023-02-24T09:03:01.869Z,7.6
2023-02-24T09:04:01.905Z,7.7
2023-02-24T09:05:01.813Z,7.7
2023-02-24T09:06:01.865Z,7.7
2023-02-24T09:07:11.210Z,7.7
2023-02-24T09:08:01.855Z,7.7
2023-02-24T09:09:01.759Z,7.9
2023-02-24T09:10:01.764Z,7.8
2023-02-24T09:11:01.598Z,7.7
2023-02-24T09:12:01.506Z,7.7
2023-02-24T09:13:01.385Z,7.8
2023-02-24T09:14:01.475Z,7.7
2023-02-24T09:15:02.392Z,7.8
2023-02-24T09:16:02.338Z,7.9
2023-02-24T09:17:02.339Z,7.9
2023-02-24T09:18:01.399Z,7.9
2023-02-24T09:19:02.376Z,7.8
2023-02-24T09:20:02.271Z,7.8
2023-02-24T09:21:02.263Z,7.9
2023-02-24T09:22:04.209Z,7.9
2023-02-24T09:23:01.390Z,7.8
2023-02-24T09:24:01.429Z,7.8
2023-02-24T09:25:02.397Z,7.9
2023-02-24T09:26:02.212Z,7.8
2023-02-24T09:27:02.358Z,7.9
2023-02-24T09:28:02.272Z,7.9
2023-02-24T09:29:02.329Z,7.9
2023-02-24T09:30:02.154Z,7.9
2023-02-24T09:31:02.266Z,7.9
2023-02-24T09:32:02.091Z,7.9
2023-02-24T09:33:02.329Z,7.9
2023-02-24T09:34:01.525Z,7.9
2023-02-24T09:35:01.546Z,7.8
2023-02-24T09:36:01.386Z,7.8
2023-02-24T09:37:01.505Z,7.7
2023-02-24T09:38:01.421Z,7.6
2023-02-24T09:39:01.703Z,7.7
2023-02-24T09:40:01.944Z,7.7
2023-02-24T09:41:10.443Z,7.7
2023-02-24T09:42:01.843Z,7.7
2023-02-24T09:43:01.841Z,7.8
2023-02-24T09:44:01.671Z,7.8
2023-02-24T09:45:01.678Z,7.8
2023-02-24T09:46:01.592Z,7.8
2023-02-24T09:47:01.884Z,7.8
2023-02-24T09:48:01.994Z,7.9
2023-02-24T09:49:01.824Z,7.8
2023-02-24T09:50:01.819Z,7.8
2023-02-24T09:51:04.079Z,7.8
2023-02-24T09:52:01.398Z,7.8
2023-02-24T09:53:09.805Z,7.8
2023-02-24T09:54:02.402Z,7.9
2023-02-24T09:55:02.242Z,7.9
2023-02-24T09:56:02.226Z,7.9
2023-02-24T09:57:02.138Z,7.9
2023-02-24T09:58:02.161Z,8
2023-02-24T09:59:02.059Z,8.1
2023-02-24T10:00:02.128Z,8
2023-02-24T10:01:01.951Z,8
2023-02-24T10:02:02.322Z,8
2023-02-24T10:03:01.468Z,8.1
2023-02-24T10:04:06.192Z,8
2023-02-24T10:05:02.093Z,8.1
2023-02-24T10:06:02.069Z,8.1
2023-02-24T10:07:01.979Z,8.2
2023-02-24T10:08:01.901Z,8.2
2023-02-24T10:09:01.850Z,8.2
2023-02-24T10:10:01.725Z,8.2
2023-02-24T10:11:01.702Z,8.2
2023-02-24T10:12:01.701Z,8.1
2023-02-24T10:13:01.566Z,8.2
2023-02-24T10:14:03.865Z,8.1
2023-02-24T10:15:01.705Z,8.1
2023-02-24T10:16:06.597Z,8.2
2023-02-24T10:17:02.071Z,8.4
2023-02-24T10:18:01.977Z,8.2
2023-02-24T10:19:01.927Z,8.2
2023-02-24T10:20:01.837Z,8.2
2023-02-24T10:21:01.848Z,8.1
2023-02-24T10:22:01.886Z,8.2
2023-02-24T10:23:01.751Z,8.3
2023-02-24T10:24:01.758Z,8.4
2023-02-24T10:25:01.584Z,8.3
2023-02-24T10:26:06.631Z,8.2
2023-02-24T10:27:08.231Z,8.4
2023-02-24T10:28:01.761Z,8.3
2023-02-24T10:29:01.795Z,8.4
2023-02-24T10:30:01.781Z,8.5
2023-02-24T10:31:01.711Z,8.3
2023-02-24T10:32:01.922Z,8.5
2023-02-24T10:33:01.544Z,8.5
2023-02-24T10:34:01.482Z,8.5
2023-02-24T10:35:01.452Z,8.5
2023-02-24T10:36:01.362Z,8.4
2023-02-24T10:37:02.475Z,8.6
2023-02-24T10:38:02.239Z,8.7
2023-02-24T10:39:02.311Z,8.7
2023-02-24T10:40:02.248Z,8.6
2023-02-24T10:41:02.113Z,8.8
2023-02-24T10:42:02.053Z,8.7
2023-02-24T10:43:02.187Z,8.7
2023-02-24T10:44:02.174Z,8.9
2023-02-24T10:45:03.179Z,8.9
2023-02-24T10:46:01.412Z,9
2023-02-24T10:47:01.914Z,8.8
2023-02-24T10:48:01.838Z,8.7
2023-02-24T10:49:01.741Z,8.7
2023-02-24T10:50:01.632Z,8.8
2023-02-24T10:51:01.702Z,8.9
2023-02-24T10:52:01.507Z,9
2023-02-24T10:53:01.422Z,8.9
2023-02-24T10:54:01.352Z,8.9
2023-02-24T10:55:02.280Z,8.9
2023-02-24T10:56:02.252Z,9
2023-02-24T10:57:02.161Z,9.1
2023-02-24T10:58:02.120Z,9.2
2023-02-24T10:59:02.035Z,9.4
2023-02-24T11:00:01.930Z,9.8
2023-02-24T11:01:01.894Z,10.2
2023-02-24T11:02:01.558Z,9.8
2023-02-24T11:03:01.472Z,10
2023-02-24T11:04:01.418Z,10.1
2023-02-24T11:05:02.606Z,10
2023-02-24T11:06:01.460Z,10.2
2023-02-24T11:07:01.370Z,10
2023-02-24T11:08:02.278Z,9.9
2023-02-24T11:09:02.242Z,10
2023-02-24T11:10:02.195Z,10.2
2023-02-24T11:11:02.163Z,10.2
2023-02-24T11:12:02.118Z,10.1
2023-02-24T11:13:09.129Z,9.9
2023-02-24T11:14:01.408Z,9.8
2023-02-24T11:15:01.361Z,9.8
2023-02-24T11:16:01.374Z,9.7
2023-02-24T11:17:01.376Z,9.5
2023-02-24T11:18:01.613Z,9.4
2023-02-24T11:19:01.518Z,9.4
2023-02-24T11:20:01.409Z,9.4
2023-02-24T11:21:01.363Z,9.5
2023-02-24T11:22:02.318Z,9.4
2023-02-24T11:23:02.229Z,9.3
2023-02-24T11:24:02.173Z,9.3
2023-02-24T11:25:02.106Z,9.3
2023-02-24T11:26:02.051Z,9.2
2023-02-24T11:27:03.451Z,9.3
2023-02-24T11:28:01.889Z,9.2
2023-02-24T11:29:01.878Z,9.2
2023-02-24T11:30:01.782Z,9.1
2023-02-24T11:31:01.764Z,9.2
2023-02-24T11:32:01.924Z,9.3
2023-02-24T11:33:02.175Z,9.2
2023-02-24T11:34:02.084Z,9.2
2023-02-24T11:35:01.936Z,9.2
2023-02-24T11:36:01.853Z,9.2
2023-02-24T11:37:01.812Z,9.3
2023-02-24T11:38:01.716Z,9.3
2023-02-24T11:39:15.435Z,9.2
2023-02-24T11:40:02.262Z,9.2
2023-02-24T11:41:02.159Z,9.3
2023-02-24T11:42:02.113Z,9.3
2023-02-24T11:43:02.041Z,9.3
2023-02-24T11:44:02.081Z,9.3
2023-02-24T11:45:01.941Z,9.4
2023-02-24T11:46:01.973Z,9.6
2023-02-24T11:47:01.688Z,9.5
2023-02-24T11:48:01.659Z,9.5
2023-02-24T11:49:01.615Z,9.7
2023-02-24T11:50:03.768Z,9.6
2023-02-24T11:51:01.949Z,9.6
2023-02-24T11:52:01.834Z,9.6
2023-02-24T11:53:01.738Z,9.6
2023-02-24T11:54:01.668Z,9.7
2023-02-24T11:55:01.540Z,9.7
2023-02-24T11:56:01.437Z,9.8
2023-02-24T11:57:01.363Z,9.6
2023-02-24T11:58:02.311Z,9.6
2023-02-24T11:59:02.280Z,9.7
2023-02-24T12:00:02.247Z,9.7
2023-02-24T12:01:02.145Z,9.6
2023-02-24T12:02:02.016Z,9.7
2023-02-24T12:03:04.018Z,9.7
2023-02-24T12:04:02.001Z,9.7
2023-02-24T12:05:01.957Z,9.6
2023-02-24T12:06:01.925Z,9.6
2023-02-24T12:07:01.843Z,9.6
2023-02-24T12:08:01.802Z,9.6
2023-02-24T12:09:01.723Z,9.5
2023-02-24T12:10:14.396Z,9.5
2023-02-24T12:11:01.534Z,9.5
2023-02-24T12:12:01.465Z,9.4
2023-02-24T12:13:01.413Z,9.4
2023-02-24T12:14:01.370Z,9.3
2023-02-24T12:15:02.286Z,9.3
2023-02-24T12:16:02.694Z,9.4
2023-02-24T12:17:01.987Z,9.4
2023-02-24T12:18:01.957Z,9.4
2023-02-24T12:19:01.888Z,9.5
2023-02-24T12:20:02.503Z,9.6
2023-02-24T12:21:02.283Z,9.5
2023-02-24T12:22:02.214Z,9.5
2023-02-24T12:23:02.154Z,9.4
2023-02-24T12:24:02.092Z,9.3
2023-02-24T12:25:02.015Z,9.3
2023-02-24T12:26:01.947Z,9.3
2023-02-24T12:27:01.870Z,9.4
2023-02-24T12:28:01.815Z,9.2
2023-02-24T12:29:01.721Z,9.3
2023-02-24T12:30:01.706Z,9.3
2023-02-24T12:31:01.572Z,9.4
2023-02-24T12:32:01.877Z,9.3
2023-02-24T12:33:02.136Z,9.3
2023-02-24T12:34:02.179Z,9.3
2023-02-24T12:35:01.985Z,9.3
2023-02-24T12:36:01.993Z,9.2
2023-02-24T12:37:01.830Z,9.2
2023-02-24T12:38:01.751Z,9.1
2023-02-24T12:39:01.789Z,9.1
2023-02-24T12:40:01.670Z,9
2023-02-24T12:41:01.659Z,9.1
2023-02-24T12:42:01.458Z,9.1
2023-02-24T12:43:01.408Z,9.2
2023-02-24T12:44:02.343Z,9.2
2023-02-24T12:45:02.258Z,9.2
2023-02-24T12:46:02.397Z,9.2
2023-02-24T12:47:02.176Z,9.2
2023-02-24T12:48:02.206Z,9.3
2023-02-24T12:49:02.070Z,9.3
2023-02-24T12:50:02.124Z,9.2
2023-02-24T12:51:01.987Z,9.1
2023-02-24T12:52:01.829Z,9.2
2023-02-24T12:53:01.846Z,9.1
2023-02-24T12:54:01.740Z,9.2
2023-02-24T12:55:01.812Z,9.1
2023-02-24T12:56:01.809Z,9.2
2023-02-24T12:57:01.689Z,9.2
2023-02-24T12:58:01.704Z,9.1
2023-02-24T12:59:01.634Z,9.1
2023-02-24T13:00:01.739Z,9.2
2023-02-24T13:01:01.842Z,9.1
2023-02-24T13:02:01.873Z,9.1
2023-02-24T13:03:01.926Z,9
2023-02-24T13:04:01.946Z,9
2023-02-24T13:05:01.845Z,9.1
2023-02-24T13:06:01.710Z,9.2
2023-02-24T13:07:01.693Z,9.1
2023-02-24T13:08:01.483Z,9.1
2023-02-24T13:09:01.437Z,9.1
2023-02-24T13:10:01.284Z,9.1
2023-02-24T13:11:02.318Z,9.2
2023-02-24T13:12:02.196Z,9.1
2023-02-24T13:13:02.218Z,9
2023-02-24T13:14:02.039Z,9
2023-02-24T13:15:02.030Z,9.1
2023-02-24T13:16:01.842Z,9.1
2023-02-24T13:17:01.820Z,9.1
2023-02-24T13:18:01.821Z,9.2
2023-02-24T13:19:01.673Z,9.2
2023-02-24T13:20:01.664Z,9.2
2023-02-24T13:21:01.472Z,9.3
2023-02-24T13:22:01.448Z,9.3
2023-02-24T13:23:01.371Z,9.2
2023-02-24T13:24:02.384Z,9.2
2023-02-24T13:25:02.244Z,9.2
2023-02-24T13:26:02.275Z,9.2
2023-02-24T13:27:02.093Z,9.1
2023-02-24T13:28:02.055Z,9.1
2023-02-24T13:29:01.890Z,9.3
2023-02-24T13:30:01.843Z,9.4
2023-02-24T13:31:01.778Z,9.3
2023-02-24T13:32:01.676Z,9.2
2023-02-24T13:33:01.822Z,9.2
2023-02-24T13:34:01.825Z,9.4
2023-02-24T13:35:01.740Z,9.4
2023-02-24T13:36:01.613Z,9.4
2023-02-24T13:37:01.622Z,9.4
2023-02-24T13:38:01.419Z,9.3
2023-02-24T13:39:01.463Z,9.2
2023-02-24T13:40:02.335Z,9.3
2023-02-24T13:41:02.268Z,9.2
2023-02-24T13:42:02.211Z,9.3
2023-02-24T13:43:02.092Z,9.2
2023-02-24T13:44:02.084Z,9.3
2023-02-24T13:45:01.903Z,9.3
2023-02-24T13:46:01.928Z,9.3
2023-02-24T13:47:01.937Z,9.3
2023-02-24T13:48:02.076Z,9.3